createdAt,value
2022-08-09T00:01:52.549Z,100.00
2022-08-09T00:04:35.068Z,100.00
2022-08-09T00:07:07.718Z,100.00
2022-08-09T00:09:39.618Z,100.00
2022-08-09T00:12:15.554Z,100.00
2022-08-09T00:14:54.456Z,100.00
2022-08-09T00:18:05.273Z,100.00
2022-08-09T00:20:15.513Z,100.00
2022-08-09T00:22:44.853Z,100.00
2022-08-09T00:25:23.182Z,100.00
2022-08-09T00:27:56.967Z,100.00
2022-08-09T00:30:27.059Z,100.00
2022-08-09T00:32:56.137Z,100.00
2022-08-09T00:35:29.635Z,100.00
2022-08-09T00:38:13.079Z,100.00
2022-08-09T00:40:53.120Z,100.00
2022-08-09T00:44:14.505Z,100.00
2022-08-09T00:46:28.357Z,100.00
2022-08-09T00:49:03.986Z,100.00
2022-08-09T00:51:33.833Z,100.00
2022-08-09T00:54:12.001Z,100.00
2022-08-09T00:56:44.960Z,100.00
2022-08-09T00:59:15.356Z,100.00
2022-08-09T01:02:03.249Z,100.00
2022-08-09T01:04:39.092Z,100.00
2022-08-09T01:07:17.499Z,100.00
2022-08-09T01:09:54.279Z,100.00
2022-08-09T01:12:31.235Z,100.00
2022-08-09T01:15:10.066Z,100.00
2022-08-09T01:17:57.590Z,100.00
2022-08-09T01:20:39.257Z,100.00
2022-08-09T01:24:00.701Z,100.00
2022-08-09T01:26:37.008Z,100.00
2022-08-09T01:29:07.650Z,100.00
2022-08-09T01:32:30.960Z,100.00
2022-08-09T01:34:30.334Z,100.00
2022-08-09T01:37:02.323Z,100.00
2022-08-09T01:39:35.693Z,100.00
2022-08-09T01:42:11.111Z,100.00
2022-08-09T01:44:41.406Z,100.00
2022-08-09T01:47:12.564Z,100.00
2022-08-09T01:49:48.767Z,100.00
2022-08-09T01:52:25.284Z,100.00
2022-08-09T01:54:58.461Z,100.00
2022-08-09T01:57:40.225Z,100.00
2022-08-09T02:00:34.641Z,100.00
2022-08-09T02:03:07.627Z,100.00
2022-08-09T02:06:03.380Z,100.00
2022-08-09T02:08:38.751Z,100.00
2022-08-09T02:11:23.707Z,100.00
2022-08-09T02:14:25.520Z,100.00
2022-08-09T02:17:00.157Z,100.00
2022-08-09T02:19:45.848Z,100.00
2022-08-09T02:22:31.832Z,100.00
2022-08-09T02:25:15.124Z,100.00
2022-08-09T02:28:00.652Z,100.00
2022-08-09T02:30:41.546Z,100.00
2022-08-09T02:33:14.522Z,100.00
2022-08-09T02:36:03.350Z,100.00
2022-08-09T02:38:37.791Z,100.00
2022-08-09T02:41:11.707Z,100.00
2022-08-09T02:43:54.814Z,100.00
2022-08-09T02:46:30.879Z,100.00
2022-08-09T02:49:04.481Z,100.00
2022-08-09T02:51:45.956Z,100.00
2022-08-09T02:54:17.899Z,100.00
2022-08-09T02:56:56.861Z,100.00
2022-08-09T02:59:36.267Z,100.00
2022-08-09T03:02:12.173Z,100.00
2022-08-09T03:04:50.602Z,100.00
2022-08-09T03:07:21.497Z,100.00
2022-08-09T03:09:53.931Z,100.00
2022-08-09T03:12:27.538Z,100.00
2022-08-09T03:14:58.665Z,100.00
2022-08-09T03:17:30.732Z,100.00
2022-08-09T03:20:05.166Z,100.00
2022-08-09T03:22:44.618Z,100.00
2022-08-09T03:25:26.159Z,100.00
2022-08-09T03:28:11.266Z,100.00
2022-08-09T03:30:40.988Z,100.00
2022-08-09T03:33:17.806Z,100.00
2022-08-09T03:36:13.314Z,100.00
2022-08-09T03:38:41.663Z,100.00
2022-08-09T03:41:15.247Z,100.00
2022-08-09T03:44:03.402Z,100.00
2022-08-09T03:46:35.007Z,100.00
2022-08-09T03:49:08.695Z,100.00
2022-08-09T03:51:55.455Z,100.00
2022-08-09T03:54:31.368Z,100.00
2022-08-09T03:57:04.317Z,100.00
2022-08-09T03:59:53.326Z,100.00
2022-08-09T04:02:30.356Z,100.00
2022-08-09T04:05:06.283Z,100.00
2022-08-09T04:07:53.436Z,100.00
2022-08-09T04:10:29.536Z,100.00
2022-08-09T04:13:04.014Z,100.00
2022-08-09T04:16:17.590Z,100.00
2022-08-09T04:18:25.159Z,100.00
2022-08-09T04:20:55.781Z,100.00
2022-08-09T04:23:25.739Z,100.00
2022-08-09T04:25:55.909Z,100.00
2022-08-09T04:28:33.005Z,100.00
2022-08-09T04:31:05.922Z,100.00
2022-08-09T04:33:47.219Z,100.00
2022-08-09T04:36:26.101Z,100.00
2022-08-09T04:38:56.477Z,100.00
2022-08-09T04:41:32.408Z,100.00
2022-08-09T04:44:07.275Z,100.00
2022-08-09T04:46:59.486Z,100.00
2022-08-09T04:49:52.837Z,100.00
2022-08-09T04:52:26.557Z,100.00
2022-08-09T04:54:57.433Z,100.00
2022-08-09T04:57:58.469Z,100.00
2022-08-09T05:00:17.221Z,100.00
2022-08-09T05:02:51.963Z,100.00
2022-08-09T05:05:31.477Z,100.00
2022-08-09T05:08:14.019Z,100.00
2022-08-09T05:10:44.549Z,100.00
2022-08-09T05:13:14.422Z,100.00
2022-08-09T05:15:52.332Z,100.00
2022-08-09T05:18:39.559Z,100.00
2022-08-09T05:21:22.739Z,100.00
2022-08-09T05:24:00.031Z,100.00
2022-08-09T05:26:45.612Z,100.00
2022-08-09T05:29:21.186Z,100.00
2022-08-09T05:31:58.458Z,100.00
2022-08-09T05:34:30.223Z,100.00
2022-08-09T05:37:04.993Z,100.00
2022-08-09T05:39:42.695Z,100.00
2022-08-09T05:42:26.275Z,100.00
2022-08-09T05:44:57.581Z,100.00
2022-08-09T05:47:30.361Z,100.00
2022-08-09T05:50:30.248Z,100.00
2022-08-09T05:52:53.289Z,100.00
2022-08-09T05:55:24.898Z,100.00
2022-08-09T05:57:57.183Z,100.00
2022-08-09T06:00:29.159Z,100.00
2022-08-09T06:02:58.977Z,100.00
2022-08-09T06:05:31.244Z,100.00
2022-08-09T06:08:19.735Z,100.00
2022-08-09T06:10:58.241Z,100.00
2022-08-09T06:13:34.153Z,100.00
2022-08-09T06:16:04.937Z,100.00
2022-08-09T06:18:34.718Z,100.00
2022-08-09T06:21:04.573Z,100.00
2022-08-09T06:23:57.249Z,100.00
2022-08-09T06:26:28.461Z,100.00
2022-08-09T06:29:00.230Z,100.00
2022-08-09T06:31:39.221Z,100.00
2022-08-09T06:34:23.470Z,100.00
2022-08-09T06:36:59.381Z,100.00
2022-08-09T06:39:48.450Z,100.00
2022-08-09T06:42:24.871Z,100.00
2022-08-09T06:45:00.092Z,100.00
2022-08-09T06:47:30.265Z,100.00
2022-08-09T06:50:14.574Z,100.00
2022-08-09T06:52:49.102Z,100.00
2022-08-09T06:55:22.448Z,100.00
2022-08-09T06:58:03.370Z,100.00
2022-08-09T07:00:56.190Z,100.00
2022-08-09T07:03:28.495Z,100.00
2022-08-09T07:06:03.534Z,100.00
2022-08-09T07:08:34.386Z,100.00
2022-08-09T07:11:06.098Z,100.00
2022-08-09T07:13:45.328Z,100.00
2022-08-09T07:16:41.058Z,100.00
2022-08-09T07:19:15.747Z,100.00
2022-08-09T07:21:57.287Z,100.00
2022-08-09T07:24:31.808Z,100.00
2022-08-09T07:27:27.109Z,100.00
2022-08-09T07:30:02.533Z,100.00
2022-08-09T07:32:34.405Z,100.00
2022-08-09T07:35:10.004Z,100.00
2022-08-09T07:37:43.770Z,100.00
2022-08-09T07:40:17.292Z,100.00
2022-08-09T07:42:54.633Z,100.00
2022-08-09T07:45:37.829Z,100.00
2022-08-09T07:48:25.359Z,100.00
2022-08-09T07:51:09.246Z,100.00
2022-08-09T07:54:04.438Z,100.00
2022-08-09T07:56:37.000Z,100.00
2022-08-09T07:59:16.031Z,100.00
2022-08-09T08:01:56.592Z,100.00
2022-08-09T08:04:32.189Z,100.00
2022-08-09T08:07:15.442Z,100.00
2022-08-09T08:09:54.907Z,100.00
2022-08-09T08:12:42.950Z,100.00
2022-08-09T08:15:16.791Z,100.00
2022-08-09T08:17:55.507Z,100.00
2022-08-09T08:20:32.474Z,100.00
2022-08-09T08:23:06.468Z,100.00
2022-08-09T08:25:46.604Z,100.00
2022-08-09T08:28:26.210Z,100.00
2022-08-09T08:31:10.427Z,100.00
2022-08-09T08:33:53.865Z,100.00
2022-08-09T08:36:29.721Z,100.00
2022-08-09T08:39:00.474Z,100.00
2022-08-09T08:41:50.799Z,100.00
2022-08-09T08:44:29.208Z,100.00
2022-08-09T08:47:05.099Z,100.00
2022-08-09T08:49:48.272Z,100.00
2022-08-09T08:52:52.500Z,100.00
2022-08-09T08:55:09.801Z,100.00
2022-08-09T08:57:39.440Z,100.00
2022-08-09T09:00:16.809Z,100.00
2022-08-09T09:02:53.413Z,100.00
2022-08-09T09:05:57.396Z,100.00
2022-08-09T09:08:29.778Z,100.00
2022-08-09T09:11:04.355Z,100.00
2022-08-09T09:13:55.107Z,100.00
2022-08-09T09:16:30.644Z,100.00
2022-08-09T09:19:29.407Z,100.00
2022-08-09T09:22:05.314Z,100.00
2022-08-09T09:24:40.438Z,100.00
2022-08-09T09:27:21.987Z,100.00
2022-08-09T09:30:26.261Z,100.00
2022-08-09T09:33:13.686Z,100.00
2022-08-09T09:36:01.971Z,100.00
2022-08-09T09:38:46.588Z,100.00
2022-08-09T09:41:49.234Z,100.00
2022-08-09T09:44:27.607Z,100.00
2022-08-09T09:46:58.978Z,100.00
2022-08-09T09:49:49.984Z,100.00
2022-08-09T09:52:36.385Z,100.00
2022-08-09T09:55:28.808Z,100.00
2022-08-09T09:58:15.703Z,100.00
2022-08-09T10:00:55.124Z,100.00
2022-08-09T10:03:57.368Z,100.00
2022-08-09T10:06:32.217Z,100.00
2022-08-09T10:09:22.882Z,100.00
2022-08-09T10:12:11.937Z,100.00
2022-08-09T10:14:47.965Z,100.00
2022-08-09T10:17:39.764Z,100.00
2022-08-09T10:20:27.555Z,100.00
2022-08-09T10:23:17.142Z,100.00
2022-08-09T10:26:07.072Z,100.00
2022-08-09T10:28:41.107Z,100.00
2022-08-09T10:34:08.977Z,100.00
2022-08-09T10:36:45.242Z,100.00
2022-08-09T10:39:18.271Z,100.00
2022-08-09T10:41:49.560Z,100.00
2022-08-09T10:44:22.236Z,100.00
2022-08-09T10:48:12.291Z,100.00
2022-08-09T10:50:05.758Z,100.00
2022-08-09T10:53:00.225Z,100.00
2022-08-09T10:55:35.821Z,100.00
2022-08-09T10:58:35.162Z,100.00
2022-08-09T11:03:14.279Z,100.00
2022-08-09T11:04:32.712Z,100.00
2022-08-09T11:07:57.728Z,100.00
2022-08-09T11:10:54.878Z,100.00
2022-08-09T11:13:50.661Z,100.00
2022-08-09T11:16:38.100Z,97.66
2022-08-09T11:19:10.738Z,98.93
2022-08-09T11:22:10.363Z,99.47
2022-08-09T11:25:05.525Z,100.00
2022-08-09T11:28:03.715Z,100.00
2022-08-09T11:30:37.626Z,100.00
2022-08-09T11:33:25.729Z,100.00
2022-08-09T11:35:58.568Z,100.00
2022-08-09T11:38:33.067Z,99.00
2022-08-09T11:41:37.515Z,96.83
2022-08-09T11:44:07.941Z,96.99
2022-08-09T11:46:57.153Z,94.33
2022-08-09T11:50:54.982Z,94.17
2022-08-09T11:53:35.507Z,94.06
2022-08-09T11:56:34.315Z,95.03
2022-08-09T11:59:14.332Z,94.41
2022-08-09T12:02:16.953Z,93.28
2022-08-09T12:04:37.138Z,90.41
2022-08-09T12:07:08.891Z,91.24
2022-08-09T12:09:38.044Z,90.76
2022-08-09T12:12:13.099Z,91.09
2022-08-09T12:15:08.066Z,90.86
2022-08-09T12:17:42.143Z,93.82
2022-08-09T12:20:16.212Z,92.66
2022-08-09T12:22:55.966Z,91.15
2022-08-09T12:25:36.211Z,92.44
2022-08-09T12:29:10.555Z,91.11
2022-08-09T12:31:00.868Z,90.77
2022-08-09T12:33:51.366Z,92.12
2022-08-09T12:36:31.915Z,93.03
2022-08-09T12:39:04.293Z,91.92
2022-08-09T12:41:39.757Z,90.14
2022-08-09T12:44:13.026Z,91.32
2022-08-09T12:46:48.803Z,89.28
2022-08-09T12:49:21.482Z,90.56
2022-08-09T12:52:01.204Z,91.13
2022-08-09T12:56:10.641Z,90.37
2022-08-09T12:57:48.413Z,91.69
2022-08-09T13:00:25.068Z,92.81
2022-08-09T13:02:57.322Z,90.94
2022-08-09T13:05:50.846Z,91.39
2022-08-09T13:08:20.960Z,90.82
2022-08-09T13:11:23.081Z,91.05
2022-08-09T13:14:37.897Z,91.15
2022-08-09T13:16:49.545Z,92.40
2022-08-09T13:20:07.058Z,90.71
2022-08-09T13:22:37.160Z,90.41
2022-08-09T13:25:07.843Z,88.66
2022-08-09T13:27:48.586Z,88.27
2022-08-09T13:31:53.495Z,87.73
2022-08-09T13:33:52.372Z,89.43
2022-08-09T13:36:41.839Z,91.14
2022-08-09T13:41:45.639Z,90.00
2022-08-09T13:42:02.290Z,89.79
2022-08-09T13:44:35.114Z,90.09
2022-08-09T13:47:29.828Z,88.87
2022-08-09T13:49:58.024Z,86.87
2022-08-09T13:52:33.917Z,88.84
2022-08-09T13:55:07.214Z,88.81
2022-08-09T13:57:40.182Z,89.20
2022-08-09T14:00:15.491Z,88.81
2022-08-09T14:03:03.636Z,87.57
2022-08-09T14:06:01.185Z,89.15
2022-08-09T14:08:26.870Z,88.13
2022-08-09T14:10:59.416Z,88.58
2022-08-09T14:14:22.255Z,91.13
2022-08-09T14:16:28.858Z,91.49
2022-08-09T14:18:59.475Z,91.42
2022-08-09T14:21:31.849Z,91.37
2022-08-09T14:24:10.494Z,91.67
2022-08-09T14:26:51.831Z,93.34
2022-08-09T14:30:15.123Z,93.91
2022-08-09T14:32:13.254Z,93.46
2022-08-09T14:34:45.475Z,94.82
2022-08-09T14:37:14.806Z,95.48
2022-08-09T14:39:48.563Z,95.56
2022-08-09T14:42:30.069Z,94.39
2022-08-09T14:46:39.558Z,93.92
2022-08-09T14:47:57.187Z,92.92
2022-08-09T14:50:31.412Z,93.55
2022-08-09T14:53:01.791Z,93.00
2022-08-09T14:55:32.147Z,94.21
2022-08-09T14:58:04.496Z,94.31
2022-08-09T15:00:36.444Z,94.10
2022-08-09T15:03:09.011Z,95.09
2022-08-09T15:05:40.223Z,94.51
2022-08-09T15:08:20.471Z,94.50
2022-08-09T15:11:01.238Z,94.99
2022-08-09T15:13:48.644Z,94.88
2022-08-09T15:16:20.701Z,93.37
2022-08-09T15:18:52.438Z,94.36
2022-08-09T15:21:55.996Z,94.22
2022-08-09T15:24:23.332Z,94.63
2022-08-09T15:26:56.282Z,94.79
2022-08-09T15:30:55.673Z,95.36
2022-08-09T15:32:28.761Z,95.60
2022-08-09T15:35:18.469Z,96.42
2022-08-09T15:37:56.956Z,96.43
2022-08-09T15:40:43.814Z,96.34
2022-08-09T15:43:14.215Z,97.39
2022-08-09T15:46:07.734Z,97.18
2022-08-09T15:48:33.926Z,98.35
2022-08-09T15:51:30.463Z,97.50
2022-08-09T15:54:07.082Z,98.63
2022-08-09T15:56:41.643Z,99.13
2022-08-09T15:59:13.757Z,99.68
2022-08-09T16:01:42.857Z,100.00
2022-08-09T16:04:13.711Z,100.00
2022-08-09T16:06:50.292Z,100.00
2022-08-09T16:09:32.329Z,100.00
2022-08-09T16:12:11.326Z,100.00
2022-08-09T16:14:40.758Z,100.00
2022-08-09T16:17:12.096Z,100.00
2022-08-09T16:19:48.975Z,100.00
2022-08-09T16:22:20.412Z,100.00
2022-08-09T16:24:56.936Z,100.00
2022-08-09T16:27:29.894Z,100.00
2022-08-09T16:30:02.612Z,100.00
2022-08-09T16:32:53.272Z,100.00
2022-08-09T16:35:56.100Z,100.00
2022-08-09T16:38:14.815Z,100.00
2022-08-09T16:40:48.078Z,100.00
2022-08-09T16:43:18.124Z,100.00
2022-08-09T16:45:47.992Z,100.00
2022-08-09T16:48:38.348Z,100.00
2022-08-09T16:51:08.640Z,100.00
2022-08-09T16:54:24.888Z,100.00
2022-08-09T16:56:35.250Z,100.00
2022-08-09T16:59:10.696Z,100.00
2022-08-09T17:01:43.777Z,100.00
2022-08-09T17:04:26.058Z,100.00
2022-08-09T17:08:40.189Z,100.00
2022-08-09T17:09:50.615Z,100.00
2022-08-09T17:12:20.105Z,100.00
2022-08-09T17:14:54.945Z,100.00
2022-08-09T17:17:27.925Z,100.00
2022-08-09T17:20:28.416Z,100.00
2022-08-09T17:22:51.872Z,100.00
2022-08-09T17:25:23.886Z,100.00
2022-08-09T17:27:55.212Z,100.00
2022-08-09T17:30:26.442Z,100.00
2022-08-09T17:33:04.884Z,100.00
2022-08-09T17:35:41.279Z,100.00
2022-08-09T17:38:32.497Z,100.00
2022-08-09T17:41:04.834Z,100.00
2022-08-09T17:43:37.161Z,100.00
2022-08-09T17:46:09.450Z,100.00
2022-08-09T17:48:46.540Z,100.00
2022-08-09T17:51:23.169Z,100.00
2022-08-09T17:53:55.233Z,100.00
2022-08-09T17:56:35.188Z,100.00
2022-08-09T17:59:09.527Z,100.00
2022-08-09T18:02:07.803Z,100.00
2022-08-09T18:04:31.382Z,100.00
2022-08-09T18:07:04.453Z,100.00
2022-08-09T18:09:41.402Z,100.00
2022-08-09T18:12:20.056Z,100.00
2022-08-09T18:14:54.860Z,100.00
2022-08-09T18:17:27.612Z,100.00
2022-08-09T18:20:58.071Z,100.00
2022-08-09T18:23:07.609Z,100.00
2022-08-09T18:25:52.798Z,100.00
2022-08-09T18:30:37.959Z,100.00
2022-08-09T18:31:50.999Z,100.00
2022-08-09T18:34:08.964Z,100.00
2022-08-09T18:36:38.291Z,100.00
2022-08-09T18:39:11.184Z,100.00
2022-08-09T18:41:53.197Z,100.00
2022-08-09T18:44:25.721Z,100.00
2022-08-09T18:47:03.489Z,100.00
2022-08-09T18:49:43.678Z,100.00
2022-08-09T18:52:18.576Z,100.00
2022-08-09T18:54:55.120Z,100.00
2022-08-09T18:57:38.455Z,100.00
2022-08-09T19:00:20.291Z,100.00
2022-08-09T19:02:53.906Z,100.00
2022-08-09T19:05:49.013Z,100.00
2022-08-09T19:08:14.162Z,100.00
2022-08-09T19:10:49.312Z,100.00
2022-08-09T19:13:38.439Z,100.00
2022-08-09T19:16:11.221Z,100.00
2022-08-09T19:18:45.426Z,100.00
2022-08-09T19:21:14.992Z,100.00
2022-08-09T19:24:36.557Z,100.00
2022-08-09T19:26:35.165Z,100.00
2022-08-09T19:29:09.685Z,100.00
2022-08-09T19:31:51.304Z,100.00
2022-08-09T19:34:24.843Z,100.00
2022-08-09T19:36:57.665Z,100.00
2022-08-09T19:39:43.865Z,100.00
2022-08-09T19:42:29.329Z,100.00
2022-08-09T19:44:58.698Z,100.00
2022-08-09T19:47:29.298Z,100.00
2022-08-09T19:50:09.844Z,100.00
2022-08-09T19:52:52.130Z,100.00
2022-08-09T19:55:25.668Z,100.00
2022-08-09T19:58:00.165Z,100.00
2022-08-09T20:00:29.529Z,100.00
2022-08-09T20:04:17.307Z,100.00
2022-08-09T20:05:53.043Z,100.00
2022-08-09T20:08:33.248Z,100.00
2022-08-09T20:11:04.983Z,100.00
2022-08-09T20:13:37.244Z,100.00
2022-08-09T20:16:34.501Z,100.00
2022-08-09T20:19:42.114Z,100.00
2022-08-09T20:21:56.894Z,100.00
2022-08-09T20:24:31.731Z,100.00
2022-08-09T20:27:07.947Z,100.00
2022-08-09T20:29:39.248Z,100.00
2022-08-09T20:32:29.333Z,100.00
2022-08-09T20:35:01.796Z,100.00
2022-08-09T20:37:37.941Z,100.00
2022-08-09T20:40:26.263Z,100.00
2022-08-09T20:43:00.384Z,100.00
2022-08-09T20:46:01.452Z,100.00
2022-08-09T20:48:38.060Z,100.00
2022-08-09T20:51:19.472Z,100.00
2022-08-09T20:53:49.121Z,100.00
2022-08-09T20:56:21.847Z,100.00
2022-08-09T20:58:54.568Z,100.00
2022-08-09T21:01:34.953Z,100.00
2022-08-09T21:05:54.030Z,100.00
2022-08-09T21:07:12.984Z,100.00
2022-08-09T21:09:45.768Z,100.00
2022-08-09T21:15:15.379Z,100.00
2022-08-09T21:18:21.965Z,100.00
2022-08-09T21:20:35.822Z,100.00
2022-08-09T21:23:09.296Z,100.00
2022-08-09T21:25:58.843Z,100.00
2022-08-09T21:28:34.635Z,100.00
2022-08-09T21:31:16.563Z,100.00
2022-08-09T21:33:50.812Z,100.00
2022-08-09T21:36:23.309Z,100.00
2022-08-09T21:38:56.792Z,100.00
2022-08-09T21:42:05.155Z,100.00
2022-08-09T21:44:34.309Z,100.00
2022-08-09T21:47:07.729Z,100.00
2022-08-09T21:49:40.586Z,100.00
2022-08-09T21:52:17.515Z,100.00
2022-08-09T21:55:03.207Z,100.00
2022-08-09T21:57:39.616Z,100.00
2022-08-09T22:00:32.643Z,100.00
2022-08-09T22:03:05.790Z,100.00
2022-08-09T22:05:37.499Z,100.00
2022-08-09T22:08:14.605Z,100.00
2022-08-09T22:11:05.040Z,100.00
2022-08-09T22:13:37.188Z,100.00
2022-08-09T22:16:08.305Z,100.00
2022-08-09T22:18:53.198Z,100.00
2022-08-09T22:21:27.354Z,100.00
2022-08-09T22:24:16.614Z,100.00
2022-08-09T22:26:51.819Z,100.00
2022-08-09T22:29:28.994Z,100.00
2022-08-09T22:32:20.001Z,100.00
2022-08-09T22:35:02.180Z,100.00
2022-08-09T22:37:39.945Z,100.00
2022-08-09T22:40:19.886Z,100.00
2022-08-09T22:42:50.880Z,100.00
2022-08-09T22:48:12.787Z,100.00
2022-08-09T22:48:17.655Z,100.00
2022-08-09T22:50:58.495Z,100.00
2022-08-09T22:53:44.154Z,100.00
2022-08-09T22:56:33.319Z,100.00
2022-08-09T22:59:55.796Z,100.00
2022-08-09T23:01:55.023Z,100.00
2022-08-09T23:04:25.565Z,100.00
2022-08-09T23:07:14.208Z,100.00
2022-08-09T23:09:45.431Z,100.00
2022-08-09T23:12:14.416Z,100.00
2022-08-09T23:14:44.825Z,100.00
2022-08-09T23:17:13.729Z,100.00
2022-08-09T23:20:00.680Z,100.00
2022-08-09T23:22:32.756Z,100.00
2022-08-09T23:25:02.325Z,100.00
2022-08-09T23:27:32.646Z,100.00
2022-08-09T23:30:03.255Z,100.00
2022-08-09T23:32:32.982Z,100.00
2022-08-09T23:35:01.984Z,100.00
2022-08-09T23:37:32.141Z,100.00
2022-08-09T23:40:01.317Z,100.00
2022-08-09T23:42:32.474Z,100.00
2022-08-09T23:45:04.125Z,100.00
2022-08-09T23:47:36.277Z,100.00
2022-08-09T23:50:06.195Z,100.00
2022-08-09T23:52:35.246Z,100.00
2022-08-09T23:55:04.864Z,100.00
2022-08-09T23:57:34.254Z,100.00
